createdAt,value
2022-10-29T00:00:56.661Z,15.00
2022-10-29T00:03:24.454Z,15.00
2022-10-29T00:06:07.860Z,14.90
2022-10-29T00:08:36.571Z,14.90
2022-10-29T00:11:12.226Z,14.90
2022-10-29T00:13:38.903Z,14.90
2022-10-29T00:16:13.052Z,14.90
2022-10-29T00:18:40.042Z,14.90
2022-10-29T00:21:10.337Z,14.90
2022-10-29T00:23:36.925Z,14.90
2022-10-29T00:26:04.536Z,14.80
2022-10-29T00:28:31.505Z,14.80
2022-10-29T00:31:01.907Z,14.80
2022-10-29T00:33:28.481Z,14.80
2022-10-29T00:36:00.578Z,14.80
2022-10-29T00:38:27.650Z,14.70
2022-10-29T00:40:55.315Z,14.70
2022-10-29T00:43:24.282Z,14.60
2022-10-29T00:45:56.312Z,14.60
2022-10-29T00:48:24.956Z,14.60
2022-10-29T00:50:53.257Z,14.60
2022-10-29T00:53:22.913Z,14.50
2022-10-29T00:55:49.624Z,14.50
2022-10-29T00:58:16.311Z,14.50
2022-10-29T01:00:44.456Z,14.50
2022-10-29T01:03:11.158Z,14.50
2022-10-29T01:05:38.346Z,14.50
2022-10-29T01:08:05.590Z,14.50
2022-10-29T01:10:53.977Z,14.40
2022-10-29T01:13:54.098Z,14.40
2022-10-29T01:16:57.669Z,14.40
2022-10-29T01:19:55.254Z,14.30
2022-10-29T01:22:35.203Z,14.30
2022-10-29T01:25:34.979Z,14.30
2022-10-29T01:28:26.760Z,14.20
2022-10-29T01:31:12.842Z,14.20
2022-10-29T01:33:58.178Z,14.10
2022-10-29T01:36:40.291Z,14.00
2022-10-29T01:39:12.183Z,14.00
2022-10-29T01:41:53.268Z,14.00
2022-10-29T01:44:41.975Z,14.00
2022-10-29T01:47:19.988Z,14.00
2022-10-29T01:49:53.827Z,14.00
2022-10-29T01:52:22.930Z,14.00
2022-10-29T01:54:49.514Z,13.90
2022-10-29T01:57:37.080Z,13.90
2022-10-29T02:00:08.991Z,13.90
2022-10-29T02:03:12.318Z,13.90
2022-10-29T02:06:09.993Z,13.90
2022-10-29T02:08:56.280Z,13.80
2022-10-29T02:11:34.423Z,13.80
2022-10-29T02:14:15.276Z,13.80
2022-10-29T02:16:42.925Z,13.80
2022-10-29T02:19:09.690Z,13.80
2022-10-29T02:21:36.291Z,13.80
2022-10-29T02:24:02.913Z,13.80
2022-10-29T02:26:29.454Z,13.80
2022-10-29T02:28:56.135Z,13.80
2022-10-29T02:31:22.683Z,13.80
2022-10-29T02:33:49.249Z,13.80
2022-10-29T02:36:15.899Z,13.80
2022-10-29T02:38:42.579Z,13.70
2022-10-29T02:41:09.157Z,13.70
2022-10-29T02:43:35.775Z,13.70
2022-10-29T02:46:20.235Z,13.80
2022-10-29T02:48:47.657Z,13.80
2022-10-29T02:51:15.414Z,13.70
2022-10-29T02:53:42.137Z,13.70
2022-10-29T02:56:09.160Z,13.80
2022-10-29T02:58:36.023Z,13.70
2022-10-29T03:01:03.161Z,13.70
2022-10-29T03:03:30.033Z,13.80
2022-10-29T03:05:56.934Z,13.80
2022-10-29T03:08:23.611Z,13.70
2022-10-29T03:10:50.268Z,13.70
2022-10-29T03:13:17.910Z,13.70
2022-10-29T03:15:47.625Z,13.70
2022-10-29T03:18:14.206Z,13.70
2022-10-29T03:20:42.225Z,13.70
2022-10-29T03:23:08.759Z,13.70
2022-10-29T03:25:35.293Z,13.70
2022-10-29T03:28:01.941Z,13.70
2022-10-29T03:30:28.552Z,13.80
2022-10-29T03:32:55.366Z,13.80
2022-10-29T03:35:22.297Z,13.80
2022-10-29T03:37:50.877Z,13.80
2022-10-29T03:40:18.371Z,13.80
2022-10-29T03:42:45.627Z,13.80
2022-10-29T03:45:12.595Z,13.80
2022-10-29T03:47:39.190Z,13.80
2022-10-29T03:50:06.247Z,13.90
2022-10-29T03:52:32.822Z,13.90
2022-10-29T03:54:59.389Z,13.90
2022-10-29T03:57:25.946Z,13.80
2022-10-29T03:59:52.883Z,13.80
2022-10-29T04:02:19.706Z,13.80
2022-10-29T04:04:46.439Z,13.80
2022-10-29T04:07:13.088Z,13.80
2022-10-29T04:09:39.649Z,13.80
2022-10-29T04:12:06.737Z,13.80
2022-10-29T04:14:33.487Z,13.80
2022-10-29T04:17:00.137Z,13.80
2022-10-29T04:19:26.835Z,13.80
2022-10-29T04:32:45.640Z,14.00
2022-10-29T04:35:12.247Z,14.00
2022-10-29T04:37:38.794Z,14.00
2022-10-29T04:40:05.926Z,14.00
2022-10-29T04:42:37.282Z,14.10
2022-10-29T04:45:05.590Z,14.10
2022-10-29T04:47:32.256Z,14.10
2022-10-29T04:49:58.986Z,14.20
2022-10-29T04:52:26.147Z,14.20
2022-10-29T04:54:52.690Z,14.20
2022-10-29T04:57:19.274Z,14.20
2022-10-29T04:59:45.823Z,14.20
2022-10-29T05:02:12.396Z,14.10
2022-10-29T05:04:38.963Z,14.20
2022-10-29T05:07:05.534Z,14.10
2022-10-29T05:09:32.077Z,14.10
2022-10-29T05:11:58.677Z,14.10
2022-10-29T05:14:25.250Z,14.10
2022-10-29T05:16:51.823Z,14.10
2022-10-29T05:19:18.408Z,14.10
2022-10-29T05:21:45.048Z,14.10
2022-10-29T05:24:11.601Z,14.20
2022-10-29T05:26:38.206Z,14.10
2022-10-29T05:29:04.783Z,14.10
2022-10-29T05:31:31.322Z,14.10
2022-10-29T05:33:57.927Z,14.20
2022-10-29T05:36:24.488Z,14.20
2022-10-29T05:38:51.033Z,14.10
2022-10-29T05:41:17.619Z,14.20
2022-10-29T05:43:44.203Z,14.20
2022-10-29T05:46:10.763Z,14.30
2022-10-29T05:48:37.335Z,14.30
2022-10-29T05:51:04.436Z,14.30
2022-10-29T05:53:30.991Z,14.30
2022-10-29T05:55:59.244Z,14.30
2022-10-29T05:58:25.814Z,14.30
2022-10-29T06:00:52.390Z,14.30
2022-10-29T06:03:20.886Z,14.30
2022-10-29T06:05:48.840Z,14.40
2022-10-29T06:08:15.508Z,14.30
2022-10-29T06:10:42.140Z,14.30
2022-10-29T06:13:35.163Z,14.40
2022-10-29T06:16:02.091Z,14.40
2022-10-29T06:18:29.378Z,14.40
2022-10-29T06:20:59.051Z,14.40
2022-10-29T06:23:26.477Z,14.40
2022-10-29T06:25:53.891Z,14.40
2022-10-29T06:28:20.699Z,14.40
2022-10-29T06:30:49.330Z,14.50
2022-10-29T06:33:17.761Z,14.50
2022-10-29T06:35:44.728Z,14.50
2022-10-29T06:38:12.626Z,14.60
2022-10-29T06:40:40.044Z,14.50
2022-10-29T06:43:09.137Z,14.50
2022-10-29T06:45:35.991Z,14.50
2022-10-29T06:48:04.965Z,14.60
2022-10-29T06:50:32.167Z,14.50
2022-10-29T06:53:00.877Z,14.50
2022-10-29T06:55:28.099Z,14.50
2022-10-29T06:58:11.733Z,14.50
2022-10-29T07:00:39.032Z,14.60
2022-10-29T07:03:06.157Z,14.70
2022-10-29T07:05:33.283Z,14.70
2022-10-29T07:08:01.284Z,14.70
2022-10-29T07:10:30.706Z,14.80
2022-10-29T07:12:57.737Z,14.80
2022-10-29T07:15:27.523Z,14.90
2022-10-29T07:18:04.030Z,14.90
2022-10-29T07:20:33.041Z,14.90
2022-10-29T07:23:01.185Z,15.00
2022-10-29T07:25:29.222Z,15.00
2022-10-29T07:28:02.204Z,15.10
2022-10-29T07:30:29.046Z,15.10
2022-10-29T07:32:55.975Z,15.20
2022-10-29T07:35:22.539Z,15.30
2022-10-29T07:37:49.123Z,15.40
2022-10-29T07:40:15.790Z,15.50
2022-10-29T07:42:42.353Z,15.60
2022-10-29T07:45:09.397Z,15.70
2022-10-29T07:47:36.189Z,15.80
2022-10-29T07:50:02.778Z,15.90
2022-10-29T07:52:29.343Z,16.00
2022-10-29T07:54:55.903Z,16.10
2022-10-29T07:57:22.492Z,16.20
2022-10-29T07:59:50.268Z,16.20
2022-10-29T08:02:16.915Z,16.30
2022-10-29T08:04:43.484Z,16.40
2022-10-29T08:07:10.030Z,16.50
2022-10-29T08:09:36.633Z,16.70
2022-10-29T08:12:05.027Z,16.80
2022-10-29T08:14:31.593Z,16.80
2022-10-29T08:16:58.168Z,16.80
2022-10-29T08:19:24.789Z,16.80
2022-10-29T08:21:51.345Z,16.90
2022-10-29T08:24:18.734Z,17.00
2022-10-29T08:26:45.358Z,17.10
2022-10-29T08:29:11.903Z,17.30
2022-10-29T08:31:38.619Z,17.40
2022-10-29T08:34:10.767Z,17.50
2022-10-29T08:36:37.759Z,17.60
2022-10-29T08:39:04.397Z,17.70
2022-10-29T08:41:43.294Z,17.90
2022-10-29T08:44:26.563Z,18.10
2022-10-29T08:47:20.411Z,18.20
2022-10-29T08:50:13.875Z,18.20
2022-10-29T08:52:52.901Z,18.20
2022-10-29T08:55:38.169Z,18.30
2022-10-29T08:58:29.940Z,18.40
2022-10-29T09:00:58.667Z,18.60
2022-10-29T09:03:29.498Z,18.70
2022-10-29T09:06:13.979Z,18.80
2022-10-29T09:08:58.408Z,18.80
2022-10-29T09:11:36.870Z,18.80
2022-10-29T09:14:19.030Z,18.80
2022-10-29T09:16:52.524Z,18.70
2022-10-29T09:19:41.624Z,18.60
2022-10-29T09:22:38.227Z,18.60
2022-10-29T09:25:22.013Z,18.50
2022-10-29T09:27:56.179Z,18.50
2022-10-29T09:30:22.934Z,18.60
2022-10-29T09:33:04.865Z,18.70
2022-10-29T09:35:45.233Z,18.70
2022-10-29T09:38:27.700Z,18.70
2022-10-29T09:40:58.663Z,18.70
2022-10-29T09:43:47.485Z,18.70
2022-10-29T09:46:33.589Z,18.80
2022-10-29T09:49:11.938Z,18.70
2022-10-29T09:51:56.482Z,18.70
2022-10-29T09:54:25.366Z,18.70
2022-10-29T09:56:54.854Z,18.70
2022-10-29T09:59:35.037Z,18.80
2022-10-29T10:02:02.707Z,18.80
2022-10-29T10:04:43.896Z,18.80
2022-10-29T10:07:15.991Z,18.80
2022-10-29T10:10:00.127Z,18.80
2022-10-29T10:12:43.897Z,18.80
2022-10-29T10:15:16.348Z,18.90
2022-10-29T10:18:01.672Z,19.00
2022-10-29T10:20:33.219Z,19.10
2022-10-29T10:23:00.373Z,19.30
2022-10-29T10:25:35.922Z,19.30
2022-10-29T10:28:24.150Z,19.50
2022-10-29T10:31:09.514Z,19.70
2022-10-29T10:33:43.524Z,19.90
2022-10-29T10:36:10.787Z,19.90
2022-10-29T10:38:52.713Z,20.10
2022-10-29T10:41:34.195Z,20.20
2022-10-29T10:44:03.448Z,20.20
2022-10-29T10:46:39.707Z,20.20
2022-10-29T10:49:21.189Z,20.10
2022-10-29T10:51:55.830Z,20.10
2022-10-29T10:54:44.552Z,20.20
2022-10-29T10:57:11.098Z,20.40
2022-10-29T10:59:54.492Z,20.70
2022-10-29T11:02:44.011Z,21.00
2022-10-29T11:05:21.146Z,21.10
2022-10-29T11:08:20.510Z,21.20
2022-10-29T11:10:57.269Z,21.20
2022-10-29T11:13:28.623Z,21.20
2022-10-29T11:16:12.194Z,21.30
2022-10-29T11:18:45.579Z,21.30
2022-10-29T11:21:43.829Z,21.40
2022-10-29T11:24:32.999Z,21.40
2022-10-29T11:27:24.055Z,21.30
2022-10-29T11:30:09.605Z,21.20
2022-10-29T11:32:50.516Z,21.20
2022-10-29T11:35:38.171Z,21.20
2022-10-29T11:38:10.772Z,21.10
2022-10-29T11:40:50.104Z,21.00
2022-10-29T11:43:20.239Z,21.00
2022-10-29T11:46:01.663Z,20.90
2022-10-29T11:48:45.383Z,20.90
2022-10-29T11:51:26.790Z,20.90
2022-10-29T11:54:02.480Z,20.90
2022-10-29T11:56:43.852Z,20.90
2022-10-29T11:59:34.924Z,20.90
2022-10-29T12:02:18.205Z,21.00
2022-10-29T12:04:51.050Z,21.10
2022-10-29T12:07:20.587Z,21.20
2022-10-29T12:10:08.953Z,21.30
2022-10-29T12:13:02.595Z,21.40
2022-10-29T12:15:41.384Z,21.40
2022-10-29T12:18:33.147Z,21.60
2022-10-29T12:20:59.632Z,21.70
2022-10-29T12:24:03.945Z,21.70
2022-10-29T12:26:43.542Z,21.80
2022-10-29T12:29:46.659Z,22.00
2022-10-29T12:32:13.166Z,22.10
2022-10-29T12:35:07.557Z,22.30
2022-10-29T12:38:19.033Z,22.40
2022-10-29T12:40:52.102Z,22.50
2022-10-29T12:43:27.201Z,22.60
2022-10-29T12:49:04.359Z,22.50
2022-10-29T12:51:51.401Z,22.40
2022-10-29T12:54:40.993Z,22.40
2022-10-29T12:57:13.764Z,22.30
2022-10-29T12:59:44.736Z,22.30
2022-10-29T13:02:32.182Z,22.30
2022-10-29T13:05:09.680Z,22.30
2022-10-29T13:07:45.345Z,22.30
2022-10-29T13:10:24.468Z,22.20
2022-10-29T13:12:53.899Z,22.20
2022-10-29T13:15:23.516Z,22.20
2022-10-29T13:17:52.814Z,22.30
2022-10-29T13:20:25.323Z,22.30
2022-10-29T13:22:57.531Z,22.20
2022-10-29T13:25:33.534Z,22.20
2022-10-29T13:28:09.041Z,22.20
2022-10-29T13:30:35.563Z,22.20
2022-10-29T13:33:28.088Z,22.30
2022-10-29T13:36:16.722Z,22.30
2022-10-29T13:39:07.492Z,22.20
2022-10-29T13:41:44.584Z,22.30
2022-10-29T13:44:14.603Z,22.30
2022-10-29T13:46:47.562Z,22.20
2022-10-29T13:49:45.535Z,22.20
2022-10-29T13:52:20.785Z,22.20
2022-10-29T13:54:50.474Z,22.20
2022-10-29T13:57:26.226Z,22.20
2022-10-29T13:59:59.403Z,22.30
2022-10-29T14:02:47.270Z,22.30
2022-10-29T14:05:58.211Z,22.20
2022-10-29T14:08:28.356Z,22.20
2022-10-29T14:10:59.292Z,22.10
2022-10-29T14:13:46.774Z,22.10
2022-10-29T14:16:21.464Z,22.10
2022-10-29T14:18:50.361Z,22.10
2022-10-29T14:21:18.279Z,22.10
2022-10-29T14:24:01.694Z,22.00
2022-10-29T14:26:30.614Z,22.00
2022-10-29T14:29:12.301Z,22.00
2022-10-29T14:31:38.849Z,22.00
2022-10-29T14:34:05.402Z,22.00
2022-10-29T14:36:44.913Z,22.00
2022-10-29T14:39:32.540Z,22.00
2022-10-29T14:41:59.539Z,22.00
2022-10-29T14:44:34.272Z,21.90
2022-10-29T14:47:14.197Z,21.90
2022-10-29T14:49:45.549Z,21.90
2022-10-29T14:52:41.023Z,21.90
2022-10-29T14:55:14.246Z,21.90
2022-10-29T14:57:44.084Z,21.90
2022-10-29T15:00:24.105Z,21.80
2022-10-29T15:02:51.316Z,21.80
2022-10-29T15:05:37.067Z,21.70
2022-10-29T15:08:09.779Z,21.70
2022-10-29T15:10:53.707Z,21.70
2022-10-29T15:13:31.114Z,21.70
2022-10-29T15:16:08.181Z,21.60
2022-10-29T15:18:36.393Z,21.50
2022-10-29T15:21:04.304Z,21.50
2022-10-29T15:23:34.092Z,21.50
2022-10-29T15:26:04.975Z,21.40
2022-10-29T15:28:38.858Z,21.40
2022-10-29T15:31:05.985Z,21.40
2022-10-29T15:33:35.709Z,21.40
2022-10-29T15:36:04.003Z,21.30
2022-10-29T15:38:30.591Z,21.30
2022-10-29T15:41:09.067Z,21.30
2022-10-29T15:43:52.374Z,21.20
2022-10-29T15:46:29.903Z,21.20
2022-10-29T15:48:56.595Z,21.20
2022-10-29T15:51:28.523Z,21.10
2022-10-29T15:53:57.170Z,21.10
2022-10-29T15:56:24.935Z,21.00
2022-10-29T15:58:52.718Z,21.00
2022-10-29T16:01:19.461Z,21.00
2022-10-29T16:03:46.157Z,21.00
2022-10-29T16:06:15.187Z,20.90
2022-10-29T16:08:47.253Z,20.90
2022-10-29T16:11:17.683Z,20.90
2022-10-29T16:13:44.250Z,20.90
2022-10-29T16:16:17.321Z,20.80
2022-10-29T16:18:49.043Z,20.80
2022-10-29T16:21:21.845Z,20.70
2022-10-29T16:23:49.359Z,20.70
2022-10-29T16:26:18.497Z,20.70
2022-10-29T16:28:45.231Z,20.70
2022-10-29T16:31:20.374Z,20.60
2022-10-29T16:33:48.193Z,20.60
2022-10-29T16:36:15.021Z,20.60
2022-10-29T16:38:41.665Z,20.50
2022-10-29T16:41:14.110Z,20.50
2022-10-29T16:43:41.230Z,20.40
2022-10-29T16:46:08.611Z,20.40
2022-10-29T16:48:35.599Z,20.30
2022-10-29T16:51:02.299Z,20.40
2022-10-29T16:53:28.969Z,20.30
2022-10-29T16:55:55.735Z,20.30
2022-10-29T16:58:22.373Z,20.30
2022-10-29T17:00:49.025Z,20.20
2022-10-29T17:03:17.382Z,20.10
2022-10-29T17:05:46.267Z,20.00
2022-10-29T17:08:13.495Z,20.00
2022-10-29T17:10:40.084Z,19.90
2022-10-29T17:13:11.585Z,19.90
2022-10-29T17:15:41.441Z,19.90
2022-10-29T17:18:08.128Z,19.90
2022-10-29T17:20:34.755Z,19.90
2022-10-29T17:23:01.334Z,19.90
2022-10-29T17:25:27.922Z,20.10
2022-10-29T17:27:54.923Z,20.00
2022-10-29T17:30:21.835Z,20.10
2022-10-29T17:32:48.535Z,20.20
2022-10-29T17:35:15.151Z,20.20
2022-10-29T17:37:41.702Z,20.20
2022-10-29T17:40:08.830Z,20.20
2022-10-29T17:42:35.518Z,20.20
2022-10-29T17:45:02.059Z,20.20
2022-10-29T17:47:29.596Z,20.20
2022-10-29T17:49:56.223Z,20.10
2022-10-29T17:52:22.791Z,20.10
2022-10-29T17:54:49.353Z,20.10
2022-10-29T17:57:15.924Z,20.00
2022-10-29T17:59:42.545Z,20.00
2022-10-29T18:02:11.541Z,20.00
2022-10-29T18:04:38.387Z,20.10
2022-10-29T18:07:04.949Z,20.00
2022-10-29T18:09:31.514Z,20.00
2022-10-29T18:11:58.190Z,20.00
2022-10-29T18:14:24.886Z,20.00
2022-10-29T18:16:51.529Z,20.10
2022-10-29T18:19:18.242Z,20.00
2022-10-29T18:21:44.987Z,20.00
2022-10-29T18:24:11.738Z,19.90
2022-10-29T18:26:38.418Z,19.90
2022-10-29T18:29:08.281Z,19.90
2022-10-29T18:31:35.542Z,19.90
2022-10-29T18:34:05.718Z,19.90
2022-10-29T18:36:32.522Z,19.90
2022-10-29T18:38:59.350Z,19.90
2022-10-29T18:41:25.949Z,19.90
2022-10-29T18:43:52.651Z,19.90
2022-10-29T18:46:19.674Z,19.90
2022-10-29T18:48:47.879Z,19.80
2022-10-29T18:51:19.562Z,19.80
2022-10-29T18:53:46.478Z,19.80
2022-10-29T18:56:15.609Z,19.80
2022-10-29T18:58:42.718Z,19.80
2022-10-29T19:01:22.472Z,19.70
2022-10-29T19:03:50.989Z,19.70
2022-10-29T19:06:18.486Z,19.60
2022-10-29T19:08:45.585Z,19.60
2022-10-29T19:11:14.731Z,19.60
2022-10-29T19:13:41.826Z,19.60
2022-10-29T19:16:10.919Z,19.60
2022-10-29T19:18:38.862Z,19.70
2022-10-29T19:21:08.235Z,19.60
2022-10-29T19:23:35.751Z,19.60
2022-10-29T19:26:04.635Z,19.60
2022-10-29T19:28:31.631Z,19.60
2022-10-29T19:31:07.141Z,19.50
2022-10-29T19:33:33.750Z,19.50
2022-10-29T19:36:00.824Z,19.50
2022-10-29T19:38:28.106Z,19.40
2022-10-29T19:40:57.713Z,19.40
2022-10-29T19:43:25.383Z,19.40
2022-10-29T19:45:52.487Z,19.40
2022-10-29T19:48:19.447Z,19.40
2022-10-29T19:50:53.653Z,19.40
2022-10-29T19:53:20.651Z,19.40
2022-10-29T19:55:50.310Z,19.40
2022-10-29T19:58:21.712Z,19.30
2022-10-29T20:00:48.587Z,19.30
2022-10-29T20:03:16.550Z,19.30
2022-10-29T20:05:43.971Z,19.30
2022-10-29T20:08:15.721Z,19.30
2022-10-29T20:10:43.388Z,19.30
2022-10-29T20:13:10.252Z,19.20
2022-10-29T20:15:39.177Z,19.20
2022-10-29T20:18:06.098Z,19.20
2022-10-29T20:20:32.741Z,19.20
2022-10-29T20:23:00.061Z,19.20
2022-10-29T20:25:27.302Z,19.20
2022-10-29T20:27:54.000Z,19.20
2022-10-29T20:30:20.623Z,19.20
2022-10-29T20:32:49.045Z,19.20
2022-10-29T20:35:16.959Z,19.20
2022-10-29T20:37:43.620Z,19.20
2022-10-29T20:40:11.050Z,19.10
2022-10-29T20:42:37.747Z,19.10
2022-10-29T20:45:05.070Z,19.10
2022-10-29T20:47:31.674Z,19.10
2022-10-29T20:49:58.226Z,19.10
2022-10-29T20:52:24.853Z,19.10
2022-10-29T20:54:51.458Z,19.00
2022-10-29T20:57:18.057Z,19.00
2022-10-29T20:59:45.286Z,19.00
2022-10-29T21:02:12.423Z,19.00
2022-10-29T21:04:39.304Z,19.00
2022-10-29T21:07:07.631Z,19.00
2022-10-29T21:09:34.261Z,19.00
2022-10-29T21:12:00.818Z,19.00
2022-10-29T21:14:29.097Z,18.90
2022-10-29T21:16:55.678Z,18.90
2022-10-29T21:19:22.931Z,18.90
2022-10-29T21:21:49.687Z,18.90
2022-10-29T21:24:17.674Z,18.90
2022-10-29T21:26:44.264Z,18.90
2022-10-29T21:29:10.843Z,18.90
2022-10-29T21:31:37.413Z,18.80
2022-10-29T21:34:03.965Z,18.80
2022-10-29T21:36:30.517Z,18.60
2022-10-29T21:38:57.160Z,18.50
2022-10-29T21:41:23.867Z,18.50
2022-10-29T21:43:50.560Z,18.50
2022-10-29T21:46:17.237Z,18.50
2022-10-29T21:48:44.053Z,18.50
2022-10-29T21:51:13.586Z,18.40
2022-10-29T21:53:40.507Z,18.40
2022-10-29T21:56:09.869Z,18.40
2022-10-29T21:58:36.466Z,18.40
2022-10-29T22:01:11.480Z,18.30
2022-10-29T22:03:41.292Z,18.30
2022-10-29T22:06:12.082Z,18.30
2022-10-29T22:08:38.907Z,18.20
2022-10-29T22:11:05.683Z,18.20
2022-10-29T22:13:33.498Z,18.20
2022-10-29T22:16:01.034Z,18.00
2022-10-29T22:18:28.334Z,18.10
2022-10-29T22:21:09.854Z,18.00
2022-10-29T22:23:38.124Z,17.90
2022-10-29T22:26:04.896Z,17.90
2022-10-29T22:28:31.523Z,17.90
2022-10-29T22:31:00.192Z,17.90
2022-10-29T22:33:27.324Z,17.90
2022-10-29T22:35:53.931Z,17.80
2022-10-29T22:38:20.511Z,17.70
2022-10-29T22:40:47.330Z,17.70
2022-10-29T22:43:14.892Z,17.70
2022-10-29T22:45:45.659Z,17.70
2022-10-29T22:48:12.497Z,17.70
2022-10-29T22:50:40.164Z,17.60
2022-10-29T22:53:06.766Z,17.60
2022-10-29T22:55:33.344Z,17.60
2022-10-29T22:57:59.906Z,17.60
2022-10-29T23:00:26.501Z,17.60
2022-10-29T23:02:53.072Z,17.60
2022-10-29T23:05:19.620Z,17.60
2022-10-29T23:07:46.184Z,17.60
2022-10-29T23:10:12.754Z,17.60
2022-10-29T23:12:39.344Z,17.60
2022-10-29T23:15:08.346Z,17.50
2022-10-29T23:17:35.130Z,17.40
2022-10-29T23:20:01.762Z,17.40
2022-10-29T23:22:28.320Z,17.40
2022-10-29T23:24:54.881Z,17.40
2022-10-29T23:27:21.467Z,17.40
2022-10-29T23:29:48.025Z,17.30
2022-10-29T23:32:14.599Z,17.30
2022-10-29T23:34:41.236Z,17.30
2022-10-29T23:37:09.935Z,17.30
2022-10-29T23:39:37.133Z,17.20
2022-10-29T23:42:04.002Z,17.20
2022-10-29T23:44:30.563Z,17.10
2022-10-29T23:46:57.110Z,17.00
2022-10-29T23:49:23.746Z,17.00
2022-10-29T23:51:50.318Z,16.90
2022-10-29T23:54:16.895Z,16.90
2022-10-29T23:56:43.747Z,16.90
2022-10-29T23:59:10.321Z,16.90
